sensor_id;sensor_type;location;lat;lon;timestamp;temperature;humidity
84807;DHT22;75042;43.504;3.714;2024-01-07T00:00:15;6.60;54.00
84807;DHT22;75042;43.504;3.714;2024-01-07T00:02:41;6.60;54.10
84807;DHT22;75042;43.504;3.714;2024-01-07T00:05:07;6.50;54.20
84807;DHT22;75042;43.504;3.714;2024-01-07T00:07:32;6.40;54.50
84807;DHT22;75042;43.504;3.714;2024-01-07T00:09:58;6.60;54.10
84807;DHT22;75042;43.504;3.714;2024-01-07T00:12:23;6.60;53.80
84807;DHT22;75042;43.504;3.714;2024-01-07T00:14:50;6.60;53.90
84807;DHT22;75042;43.504;3.714;2024-01-07T00:17:15;6.60;53.70
84807;DHT22;75042;43.504;3.714;2024-01-07T00:19:41;6.60;53.70
84807;DHT22;75042;43.504;3.714;2024-01-07T00:22:07;6.60;53.50
84807;DHT22;75042;43.504;3.714;2024-01-07T00:24:32;6.70;53.10
84807;DHT22;75042;43.504;3.714;2024-01-07T00:26:58;6.60;53.20
84807;DHT22;75042;43.504;3.714;2024-01-07T00:29:23;6.60;53.30
84807;DHT22;75042;43.504;3.714;2024-01-07T00:31:49;6.50;53.80
84807;DHT22;75042;43.504;3.714;2024-01-07T00:34:14;6.50;53.60
84807;DHT22;75042;43.504;3.714;2024-01-07T00:36:40;6.50;53.70
84807;DHT22;75042;43.504;3.714;2024-01-07T00:39:05;6.50;54.10
84807;DHT22;75042;43.504;3.714;2024-01-07T00:41:31;6.40;54.10
84807;DHT22;75042;43.504;3.714;2024-01-07T00:43:56;6.40;54.40
84807;DHT22;75042;43.504;3.714;2024-01-07T00:46:22;6.30;54.90
84807;DHT22;75042;43.504;3.714;2024-01-07T00:48:47;6.30;55.00
84807;DHT22;75042;43.504;3.714;2024-01-07T00:51:13;6.30;55.10
84807;DHT22;75042;43.504;3.714;2024-01-07T00:53:39;6.20;55.10
84807;DHT22;75042;43.504;3.714;2024-01-07T00:56:04;6.40;54.90
84807;DHT22;75042;43.504;3.714;2024-01-07T00:58:30;6.30;55.00
84807;DHT22;75042;43.504;3.714;2024-01-07T01:00:56;6.30;55.40
84807;DHT22;75042;43.504;3.714;2024-01-07T01:03:21;6.20;55.90
84807;DHT22;75042;43.504;3.714;2024-01-07T01:05:47;6.10;56.30
84807;DHT22;75042;43.504;3.714;2024-01-07T01:08:12;6.10;56.40
84807;DHT22;75042;43.504;3.714;2024-01-07T01:10:38;6.10;57.00
84807;DHT22;75042;43.504;3.714;2024-01-07T01:13:03;6.10;56.90
84807;DHT22;75042;43.504;3.714;2024-01-07T01:15:29;6.20;56.90
84807;DHT22;75042;43.504;3.714;2024-01-07T01:17:54;6.30;56.30
84807;DHT22;75042;43.504;3.714;2024-01-07T01:20:20;6.30;55.90
84807;DHT22;75042;43.504;3.714;2024-01-07T01:22:45;6.30;55.90
84807;DHT22;75042;43.504;3.714;2024-01-07T01:25:11;6.30;56.40
84807;DHT22;75042;43.504;3.714;2024-01-07T01:27:36;6.20;56.20
84807;DHT22;75042;43.504;3.714;2024-01-07T01:30:02;6.30;56.20
84807;DHT22;75042;43.504;3.714;2024-01-07T01:32:28;6.20;56.30
84807;DHT22;75042;43.504;3.714;2024-01-07T01:34:53;6.20;56.50
84807;DHT22;75042;43.504;3.714;2024-01-07T01:37:19;6.10;56.70
84807;DHT22;75042;43.504;3.714;2024-01-07T01:39:44;6.10;57.00
84807;DHT22;75042;43.504;3.714;2024-01-07T01:42:10;6.10;56.90
84807;DHT22;75042;43.504;3.714;2024-01-07T01:44:35;6.10;56.70
84807;DHT22;75042;43.504;3.714;2024-01-07T01:47:01;6.10;56.60
84807;DHT22;75042;43.504;3.714;2024-01-07T01:49:27;6.10;56.70
84807;DHT22;75042;43.504;3.714;2024-01-07T01:51:52;6.20;56.60
84807;DHT22;75042;43.504;3.714;2024-01-07T01:54:18;6.10;56.60
84807;DHT22;75042;43.504;3.714;2024-01-07T01:56:44;6.10;56.90
84807;DHT22;75042;43.504;3.714;2024-01-07T01:59:10;6.10;56.70
84807;DHT22;75042;43.504;3.714;2024-01-07T02:01:36;6.20;56.60
84807;DHT22;75042;43.504;3.714;2024-01-07T02:04:01;6.20;56.70
84807;DHT22;75042;43.504;3.714;2024-01-07T02:06:27;6.10;56.90
84807;DHT22;75042;43.504;3.714;2024-01-07T02:08:53;6.10;57.10
84807;DHT22;75042;43.504;3.714;2024-01-07T02:11:19;6.10;57.10
84807;DHT22;75042;43.504;3.714;2024-01-07T02:13:45;6.10;57.10
84807;DHT22;75042;43.504;3.714;2024-01-07T02:16:10;6.10;57.40
84807;DHT22;75042;43.504;3.714;2024-01-07T02:18:36;6.10;57.50
84807;DHT22;75042;43.504;3.714;2024-01-07T02:21:02;6.10;57.50
84807;DHT22;75042;43.504;3.714;2024-01-07T02:23:28;6.10;57.30
84807;DHT22;75042;43.504;3.714;2024-01-07T02:25:53;6.20;57.10
84807;DHT22;75042;43.504;3.714;2024-01-07T02:28:19;6.20;57.00
84807;DHT22;75042;43.504;3.714;2024-01-07T02:30:44;6.20;57.30
84807;DHT22;75042;43.504;3.714;2024-01-07T02:33:10;6.10;57.60
84807;DHT22;75042;43.504;3.714;2024-01-07T02:35:35;6.20;57.20
84807;DHT22;75042;43.504;3.714;2024-01-07T02:38:01;6.20;56.90
84807;DHT22;75042;43.504;3.714;2024-01-07T02:40:26;6.20;57.10
84807;DHT22;75042;43.504;3.714;2024-01-07T02:42:52;6.20;57.10
84807;DHT22;75042;43.504;3.714;2024-01-07T02:45:18;6.30;56.70
84807;DHT22;75042;43.504;3.714;2024-01-07T02:47:44;6.30;56.70
84807;DHT22;75042;43.504;3.714;2024-01-07T02:50:09;6.30;56.90
84807;DHT22;75042;43.504;3.714;2024-01-07T02:52:35;6.30;57.10
84807;DHT22;75042;43.504;3.714;2024-01-07T02:55:00;6.40;56.60
84807;DHT22;75042;43.504;3.714;2024-01-07T02:57:27;6.40;56.60
84807;DHT22;75042;43.504;3.714;2024-01-07T02:59:52;6.40;56.50
84807;DHT22;75042;43.504;3.714;2024-01-07T03:02:18;6.40;56.60
84807;DHT22;75042;43.504;3.714;2024-01-07T03:04:44;6.30;56.70
84807;DHT22;75042;43.504;3.714;2024-01-07T03:07:09;6.30;56.60
84807;DHT22;75042;43.504;3.714;2024-01-07T03:09:35;6.40;56.60
84807;DHT22;75042;43.504;3.714;2024-01-07T03:12:00;6.40;56.90
84807;DHT22;75042;43.504;3.714;2024-01-07T03:14:26;6.30;57.10
84807;DHT22;75042;43.504;3.714;2024-01-07T03:16:52;6.30;57.20
84807;DHT22;75042;43.504;3.714;2024-01-07T03:19:17;6.30;56.90
84807;DHT22;75042;43.504;3.714;2024-01-07T03:21:43;6.30;57.20
84807;DHT22;75042;43.504;3.714;2024-01-07T03:24:08;6.30;57.30
84807;DHT22;75042;43.504;3.714;2024-01-07T03:26:34;6.20;57.40
84807;DHT22;75042;43.504;3.714;2024-01-07T03:29:00;6.20;57.60
84807;DHT22;75042;43.504;3.714;2024-01-07T03:31:27;6.30;57.40
84807;DHT22;75042;43.504;3.714;2024-01-07T03:33:52;6.30;57.20
84807;DHT22;75042;43.504;3.714;2024-01-07T03:36:18;6.30;57.50
84807;DHT22;75042;43.504;3.714;2024-01-07T03:38:43;6.20;57.60
84807;DHT22;75042;43.504;3.714;2024-01-07T03:41:09;6.20;57.50
84807;DHT22;75042;43.504;3.714;2024-01-07T03:43:40;6.20;57.70
84807;DHT22;75042;43.504;3.714;2024-01-07T03:46:06;6.20;57.60
84807;DHT22;75042;43.504;3.714;2024-01-07T03:48:31;6.20;57.70
84807;DHT22;75042;43.504;3.714;2024-01-07T03:50:57;6.20;57.90
84807;DHT22;75042;43.504;3.714;2024-01-07T03:53:22;6.10;57.80
84807;DHT22;75042;43.504;3.714;2024-01-07T03:55:48;6.20;57.80
84807;DHT22;75042;43.504;3.714;2024-01-07T03:58:14;6.20;57.90
84807;DHT22;75042;43.504;3.714;2024-01-07T04:00:39;6.10;57.80
84807;DHT22;75042;43.504;3.714;2024-01-07T04:03:05;6.10;57.90
84807;DHT22;75042;43.504;3.714;2024-01-07T04:05:31;6.20;57.30
84807;DHT22;75042;43.504;3.714;2024-01-07T04:08:00;6.20;57.40
84807;DHT22;75042;43.504;3.714;2024-01-07T04:10:25;6.20;57.30
84807;DHT22;75042;43.504;3.714;2024-01-07T04:12:51;6.20;57.40
84807;DHT22;75042;43.504;3.714;2024-01-07T04:15:16;6.20;57.30
84807;DHT22;75042;43.504;3.714;2024-01-07T04:17:42;6.20;57.80
84807;DHT22;75042;43.504;3.714;2024-01-07T04:20:07;6.10;57.80
84807;DHT22;75042;43.504;3.714;2024-01-07T04:22:33;6.10;58.00
84807;DHT22;75042;43.504;3.714;2024-01-07T04:24:58;6.10;57.90
84807;DHT22;75042;43.504;3.714;2024-01-07T04:27:24;6.10;57.70
84807;DHT22;75042;43.504;3.714;2024-01-07T04:29:52;6.10;57.80
84807;DHT22;75042;43.504;3.714;2024-01-07T04:32:18;6.10;58.00
84807;DHT22;75042;43.504;3.714;2024-01-07T04:34:43;6.10;57.80
84807;DHT22;75042;43.504;3.714;2024-01-07T04:37:09;6.10;57.60
84807;DHT22;75042;43.504;3.714;2024-01-07T04:39:34;6.10;58.00
84807;DHT22;75042;43.504;3.714;2024-01-07T04:42:00;6.10;57.90
84807;DHT22;75042;43.504;3.714;2024-01-07T04:44:25;6.10;57.80
84807;DHT22;75042;43.504;3.714;2024-01-07T04:46:51;6.10;58.20
84807;DHT22;75042;43.504;3.714;2024-01-07T04:49:16;6.10;57.90
84807;DHT22;75042;43.504;3.714;2024-01-07T04:51:42;6.10;57.90
84807;DHT22;75042;43.504;3.714;2024-01-07T04:54:07;6.20;57.50
84807;DHT22;75042;43.504;3.714;2024-01-07T04:56:33;6.10;57.70
84807;DHT22;75042;43.504;3.714;2024-01-07T04:58:58;6.20;57.40
84807;DHT22;75042;43.504;3.714;2024-01-07T05:01:24;6.10;57.50
84807;DHT22;75042;43.504;3.714;2024-01-07T05:03:50;6.10;57.80
84807;DHT22;75042;43.504;3.714;2024-01-07T05:06:15;6.10;57.50
84807;DHT22;75042;43.504;3.714;2024-01-07T05:08:41;6.10;57.50
84807;DHT22;75042;43.504;3.714;2024-01-07T05:11:06;6.10;57.70
84807;DHT22;75042;43.504;3.714;2024-01-07T05:13:32;6.00;58.00
84807;DHT22;75042;43.504;3.714;2024-01-07T05:15:57;6.00;58.00
84807;DHT22;75042;43.504;3.714;2024-01-07T05:18:23;6.00;58.00
84807;DHT22;75042;43.504;3.714;2024-01-07T05:20:49;6.10;57.70
84807;DHT22;75042;43.504;3.714;2024-01-07T05:23:14;6.10;57.70
84807;DHT22;75042;43.504;3.714;2024-01-07T05:25:42;6.10;57.50
84807;DHT22;75042;43.504;3.714;2024-01-07T05:28:07;6.10;57.60
84807;DHT22;75042;43.504;3.714;2024-01-07T05:30:33;6.10;57.80
84807;DHT22;75042;43.504;3.714;2024-01-07T05:32:58;6.00;57.80
84807;DHT22;75042;43.504;3.714;2024-01-07T05:35:24;6.00;57.80
84807;DHT22;75042;43.504;3.714;2024-01-07T05:37:49;6.00;57.70
84807;DHT22;75042;43.504;3.714;2024-01-07T05:40:15;6.00;57.90
84807;DHT22;75042;43.504;3.714;2024-01-07T05:42:40;6.00;57.90
84807;DHT22;75042;43.504;3.714;2024-01-07T05:45:06;6.00;58.30
84807;DHT22;75042;43.504;3.714;2024-01-07T05:47:32;5.90;58.10
84807;DHT22;75042;43.504;3.714;2024-01-07T05:49:57;5.90;58.40
84807;DHT22;75042;43.504;3.714;2024-01-07T05:52:23;5.90;58.40
84807;DHT22;75042;43.504;3.714;2024-01-07T05:54:49;5.90;58.40
84807;DHT22;75042;43.504;3.714;2024-01-07T05:57:14;6.00;58.10
84807;DHT22;75042;43.504;3.714;2024-01-07T05:59:40;5.90;58.30
84807;DHT22;75042;43.504;3.714;2024-01-07T06:02:06;5.90;58.20
84807;DHT22;75042;43.504;3.714;2024-01-07T06:04:31;5.90;58.40
84807;DHT22;75042;43.504;3.714;2024-01-07T06:06:57;5.90;58.40
84807;DHT22;75042;43.504;3.714;2024-01-07T06:09:22;6.00;58.40
84807;DHT22;75042;43.504;3.714;2024-01-07T06:11:48;6.00;58.20
84807;DHT22;75042;43.504;3.714;2024-01-07T06:14:13;6.00;58.10
84807;DHT22;75042;43.504;3.714;2024-01-07T06:16:39;5.90;58.30
84807;DHT22;75042;43.504;3.714;2024-01-07T06:19:04;5.90;58.50
84807;DHT22;75042;43.504;3.714;2024-01-07T06:21:30;5.80;58.80
84807;DHT22;75042;43.504;3.714;2024-01-07T06:23:55;5.80;58.80
84807;DHT22;75042;43.504;3.714;2024-01-07T06:26:21;5.80;58.50
84807;DHT22;75042;43.504;3.714;2024-01-07T06:28:46;5.90;58.60
84807;DHT22;75042;43.504;3.714;2024-01-07T06:31:12;5.80;58.70
84807;DHT22;75042;43.504;3.714;2024-01-07T06:33:37;5.80;59.00
84807;DHT22;75042;43.504;3.714;2024-01-07T06:36:03;5.80;58.80
84807;DHT22;75042;43.504;3.714;2024-01-07T06:38:29;5.80;58.90
84807;DHT22;75042;43.504;3.714;2024-01-07T06:40:54;5.80;59.00
84807;DHT22;75042;43.504;3.714;2024-01-07T06:43:20;5.80;59.10
84807;DHT22;75042;43.504;3.714;2024-01-07T06:45:46;5.70;59.30
84807;DHT22;75042;43.504;3.714;2024-01-07T06:48:11;5.80;59.10
84807;DHT22;75042;43.504;3.714;2024-01-07T06:50:37;5.80;59.00
84807;DHT22;75042;43.504;3.714;2024-01-07T06:53:03;5.70;59.40
84807;DHT22;75042;43.504;3.714;2024-01-07T06:55:28;5.80;59.30
84807;DHT22;75042;43.504;3.714;2024-01-07T06:57:54;5.80;58.90
84807;DHT22;75042;43.504;3.714;2024-01-07T07:00:19;5.80;59.10
84807;DHT22;75042;43.504;3.714;2024-01-07T07:02:45;5.90;58.40
84807;DHT22;75042;43.504;3.714;2024-01-07T07:05:11;6.00;57.90
84807;DHT22;75042;43.504;3.714;2024-01-07T07:07:36;6.10;57.70
84807;DHT22;75042;43.504;3.714;2024-01-07T07:10:02;6.00;57.80
84807;DHT22;75042;43.504;3.714;2024-01-07T07:12:29;6.00;58.20
84807;DHT22;75042;43.504;3.714;2024-01-07T07:14:54;5.90;58.30
84807;DHT22;75042;43.504;3.714;2024-01-07T07:17:20;5.80;58.90
84807;DHT22;75042;43.504;3.714;2024-01-07T07:19:45;5.80;59.30
84807;DHT22;75042;43.504;3.714;2024-01-07T07:22:11;5.80;59.30
84807;DHT22;75042;43.504;3.714;2024-01-07T07:24:39;5.80;59.10
84807;DHT22;75042;43.504;3.714;2024-01-07T07:27:05;5.90;58.80
84807;DHT22;75042;43.504;3.714;2024-01-07T07:29:30;6.00;58.30
84807;DHT22;75042;43.504;3.714;2024-01-07T07:31:56;5.90;58.40
84807;DHT22;75042;43.504;3.714;2024-01-07T07:34:21;5.90;58.20
84807;DHT22;75042;43.504;3.714;2024-01-07T07:36:47;5.90;58.60
84807;DHT22;75042;43.504;3.714;2024-01-07T07:39:12;5.90;58.70
84807;DHT22;75042;43.504;3.714;2024-01-07T07:41:39;5.90;58.30
84807;DHT22;75042;43.504;3.714;2024-01-07T07:44:05;5.90;58.40
84807;DHT22;75042;43.504;3.714;2024-01-07T07:46:30;6.00;57.90
84807;DHT22;75042;43.504;3.714;2024-01-07T07:48:56;6.00;58.00
84807;DHT22;75042;43.504;3.714;2024-01-07T07:51:21;6.00;57.90
84807;DHT22;75042;43.504;3.714;2024-01-07T07:53:47;6.00;58.30
84807;DHT22;75042;43.504;3.714;2024-01-07T07:56:12;6.00;57.80
84807;DHT22;75042;43.504;3.714;2024-01-07T07:58:38;6.10;57.70
84807;DHT22;75042;43.504;3.714;2024-01-07T08:01:04;6.10;57.50
84807;DHT22;75042;43.504;3.714;2024-01-07T08:03:30;6.10;57.30
84807;DHT22;75042;43.504;3.714;2024-01-07T08:05:57;6.20;56.60
84807;DHT22;75042;43.504;3.714;2024-01-07T08:08:22;6.20;56.80
84807;DHT22;75042;43.504;3.714;2024-01-07T08:10:48;6.20;56.60
84807;DHT22;75042;43.504;3.714;2024-01-07T08:13:13;6.20;56.70
84807;DHT22;75042;43.504;3.714;2024-01-07T08:15:39;6.30;55.90
84807;DHT22;75042;43.504;3.714;2024-01-07T08:18:05;6.40;55.50
84807;DHT22;75042;43.504;3.714;2024-01-07T08:20:30;6.50;55.20
84807;DHT22;75042;43.504;3.714;2024-01-07T08:22:56;6.60;54.80
84807;DHT22;75042;43.504;3.714;2024-01-07T08:25:21;6.60;54.70
84807;DHT22;75042;43.504;3.714;2024-01-07T08:27:48;6.70;54.70
84807;DHT22;75042;43.504;3.714;2024-01-07T08:30:14;6.80;54.30
84807;DHT22;75042;43.504;3.714;2024-01-07T08:32:40;6.90;53.90
84807;DHT22;75042;43.504;3.714;2024-01-07T08:35:06;6.90;54.00
84807;DHT22;75042;43.504;3.714;2024-01-07T08:37:31;6.90;54.00
84807;DHT22;75042;43.504;3.714;2024-01-07T08:39:57;7.00;53.90
84807;DHT22;75042;43.504;3.714;2024-01-07T08:42:22;7.00;54.10
84807;DHT22;75042;43.504;3.714;2024-01-07T08:44:48;7.10;53.90
84807;DHT22;75042;43.504;3.714;2024-01-07T08:47:14;7.20;53.60
84807;DHT22;75042;43.504;3.714;2024-01-07T08:49:40;7.20;53.50
84807;DHT22;75042;43.504;3.714;2024-01-07T08:52:06;7.30;53.00
84807;DHT22;75042;43.504;3.714;2024-01-07T08:54:31;7.50;52.70
84807;DHT22;75042;43.504;3.714;2024-01-07T08:56:58;7.70;52.00
84807;DHT22;75042;43.504;3.714;2024-01-07T08:59:24;7.80;51.70
84807;DHT22;75042;43.504;3.714;2024-01-07T09:01:49;7.90;51.20
84807;DHT22;75042;43.504;3.714;2024-01-07T09:04:15;8.00;50.80
84807;DHT22;75042;43.504;3.714;2024-01-07T09:06:43;8.30;50.40
84807;DHT22;75042;43.504;3.714;2024-01-07T09:09:09;8.50;49.50
84807;DHT22;75042;43.504;3.714;2024-01-07T09:11:34;8.60;49.20
84807;DHT22;75042;43.504;3.714;2024-01-07T09:14:01;8.60;48.50
84807;DHT22;75042;43.504;3.714;2024-01-07T09:16:28;8.90;48.20
84807;DHT22;75042;43.504;3.714;2024-01-07T09:18:54;9.20;47.50
84807;DHT22;75042;43.504;3.714;2024-01-07T09:21:19;9.30;46.90
84807;DHT22;75042;43.504;3.714;2024-01-07T09:23:45;9.30;46.80
84807;DHT22;75042;43.504;3.714;2024-01-07T09:26:10;9.20;46.80
84807;DHT22;75042;43.504;3.714;2024-01-07T09:28:36;9.10;46.80
84807;DHT22;75042;43.504;3.714;2024-01-07T09:31:02;9.10;46.60
84807;DHT22;75042;43.504;3.714;2024-01-07T09:33:28;9.00;47.00
84807;DHT22;75042;43.504;3.714;2024-01-07T09:35:53;9.00;47.00
84807;DHT22;75042;43.504;3.714;2024-01-07T09:38:21;9.10;46.70
84807;DHT22;75042;43.504;3.714;2024-01-07T09:40:47;9.00;46.70
84807;DHT22;75042;43.504;3.714;2024-01-07T09:43:13;8.90;46.90
84807;DHT22;75042;43.504;3.714;2024-01-07T09:45:38;9.00;46.60
84807;DHT22;75042;43.504;3.714;2024-01-07T09:48:06;9.20;46.20
84807;DHT22;75042;43.504;3.714;2024-01-07T09:50:32;9.30;46.00
84807;DHT22;75042;43.504;3.714;2024-01-07T09:52:58;9.40;45.50
84807;DHT22;75042;43.504;3.714;2024-01-07T09:58:20;9.70;43.90
84807;DHT22;75042;43.504;3.714;2024-01-07T10:00:45;10.00;44.00
84807;DHT22;75042;43.504;3.714;2024-01-07T10:03:11;10.10;43.10
84807;DHT22;75042;43.504;3.714;2024-01-07T10:05:37;10.40;42.40
84807;DHT22;75042;43.504;3.714;2024-01-07T10:08:02;11.00;41.20
84807;DHT22;75042;43.504;3.714;2024-01-07T10:10:28;11.40;40.20
84807;DHT22;75042;43.504;3.714;2024-01-07T10:12:54;11.60;39.50
84807;DHT22;75042;43.504;3.714;2024-01-07T10:15:22;11.70;39.30
84807;DHT22;75042;43.504;3.714;2024-01-07T10:17:47;11.70;39.30
84807;DHT22;75042;43.504;3.714;2024-01-07T10:20:13;11.50;39.60
84807;DHT22;75042;43.504;3.714;2024-01-07T10:22:39;11.50;40.20
84807;DHT22;75042;43.504;3.714;2024-01-07T10:25:05;11.80;39.30
84807;DHT22;75042;43.504;3.714;2024-01-07T10:27:33;11.70;39.50
84807;DHT22;75042;43.504;3.714;2024-01-07T10:29:58;11.30;39.90
84807;DHT22;75042;43.504;3.714;2024-01-07T10:32:24;11.00;40.70
84807;DHT22;75042;43.504;3.714;2024-01-07T10:34:50;11.00;40.80
84807;DHT22;75042;43.504;3.714;2024-01-07T10:37:18;11.00;40.60
84807;DHT22;75042;43.504;3.714;2024-01-07T10:39:44;10.60;41.70
84807;DHT22;75042;43.504;3.714;2024-01-07T10:42:10;10.40;41.90
84807;DHT22;75042;43.504;3.714;2024-01-07T10:44:37;10.00;42.60
84807;DHT22;75042;43.504;3.714;2024-01-07T10:47:03;10.00;42.60
84807;DHT22;75042;43.504;3.714;2024-01-07T10:49:31;10.00;42.60
84807;DHT22;75042;43.504;3.714;2024-01-07T10:52:06;9.80;42.80
84807;DHT22;75042;43.504;3.714;2024-01-07T10:54:33;9.90;42.60
84807;DHT22;75042;43.504;3.714;2024-01-07T10:57:04;10.30;42.00
84807;DHT22;75042;43.504;3.714;2024-01-07T10:59:32;10.10;41.80
84807;DHT22;75042;43.504;3.714;2024-01-07T11:01:59;10.20;41.80
84807;DHT22;75042;43.504;3.714;2024-01-07T11:07:22;9.90;42.20
84807;DHT22;75042;43.504;3.714;2024-01-07T11:12:25;10.10;41.70
84807;DHT22;75042;43.504;3.714;2024-01-07T11:14:51;9.90;41.70
84807;DHT22;75042;43.504;3.714;2024-01-07T11:17:39;10.00;41.60
84807;DHT22;75042;43.504;3.714;2024-01-07T11:20:07;10.20;41.20
84807;DHT22;75042;43.504;3.714;2024-01-07T11:22:35;10.50;40.30
84807;DHT22;75042;43.504;3.714;2024-01-07T11:25:01;10.70;39.70
84807;DHT22;75042;43.504;3.714;2024-01-07T11:27:28;10.80;39.30
84807;DHT22;75042;43.504;3.714;2024-01-07T11:29:57;10.90;39.40
84807;DHT22;75042;43.504;3.714;2024-01-07T11:32:24;10.80;39.50
84807;DHT22;75042;43.504;3.714;2024-01-07T11:34:54;10.70;39.60
84807;DHT22;75042;43.504;3.714;2024-01-07T11:37:22;10.40;40.00
84807;DHT22;75042;43.504;3.714;2024-01-07T11:39:48;10.10;40.40
84807;DHT22;75042;43.504;3.714;2024-01-07T11:42:15;10.10;40.30
84807;DHT22;75042;43.504;3.714;2024-01-07T11:44:47;10.20;40.20
84807;DHT22;75042;43.504;3.714;2024-01-07T11:47:13;10.10;40.50
84807;DHT22;75042;43.504;3.714;2024-01-07T11:49:39;10.10;40.60
84807;DHT22;75042;43.504;3.714;2024-01-07T11:52:05;10.10;40.60
84807;DHT22;75042;43.504;3.714;2024-01-07T11:54:31;9.90;40.70
84807;DHT22;75042;43.504;3.714;2024-01-07T11:56:56;10.00;40.70
84807;DHT22;75042;43.504;3.714;2024-01-07T11:59:22;10.00;40.60
84807;DHT22;75042;43.504;3.714;2024-01-07T12:01:48;9.90;40.70
84807;DHT22;75042;43.504;3.714;2024-01-07T12:04:13;9.90;40.40
84807;DHT22;75042;43.504;3.714;2024-01-07T12:06:39;10.10;40.30
84807;DHT22;75042;43.504;3.714;2024-01-07T12:09:05;9.90;39.80
84807;DHT22;75042;43.504;3.714;2024-01-07T12:11:31;10.00;39.60
84807;DHT22;75042;43.504;3.714;2024-01-07T12:13:57;10.00;39.50
84807;DHT22;75042;43.504;3.714;2024-01-07T12:16:22;9.90;39.80
84807;DHT22;75042;43.504;3.714;2024-01-07T12:18:48;9.80;39.20
84807;DHT22;75042;43.504;3.714;2024-01-07T12:21:18;9.70;39.10
84807;DHT22;75042;43.504;3.714;2024-01-07T12:23:47;9.70;39.10
84807;DHT22;75042;43.504;3.714;2024-01-07T12:26:13;9.70;39.10
84807;DHT22;75042;43.504;3.714;2024-01-07T12:28:38;9.60;39.30
84807;DHT22;75042;43.504;3.714;2024-01-07T12:31:04;9.60;39.20
84807;DHT22;75042;43.504;3.714;2024-01-07T12:33:30;9.60;39.30
84807;DHT22;75042;43.504;3.714;2024-01-07T12:35:57;9.50;38.90
84807;DHT22;75042;43.504;3.714;2024-01-07T12:38:26;9.50;38.90
84807;DHT22;75042;43.504;3.714;2024-01-07T12:40:52;9.50;39.20
84807;DHT22;75042;43.504;3.714;2024-01-07T12:43:17;9.50;39.20
84807;DHT22;75042;43.504;3.714;2024-01-07T12:45:43;9.40;39.00
84807;DHT22;75042;43.504;3.714;2024-01-07T12:48:09;9.50;39.30
84807;DHT22;75042;43.504;3.714;2024-01-07T12:50:35;9.50;39.10
84807;DHT22;75042;43.504;3.714;2024-01-07T12:53:01;9.40;39.30
84807;DHT22;75042;43.504;3.714;2024-01-07T12:55:26;9.40;39.30
84807;DHT22;75042;43.504;3.714;2024-01-07T12:57:52;9.40;39.20
84807;DHT22;75042;43.504;3.714;2024-01-07T13:00:17;9.40;39.60
84807;DHT22;75042;43.504;3.714;2024-01-07T13:02:43;9.40;39.40
84807;DHT22;75042;43.504;3.714;2024-01-07T13:05:09;9.40;39.40
84807;DHT22;75042;43.504;3.714;2024-01-07T13:07:34;9.40;39.40
84807;DHT22;75042;43.504;3.714;2024-01-07T13:10:00;9.40;39.60
84807;DHT22;75042;43.504;3.714;2024-01-07T13:12:26;9.50;39.70
84807;DHT22;75042;43.504;3.714;2024-01-07T13:14:52;9.50;39.70
84807;DHT22;75042;43.504;3.714;2024-01-07T13:17:18;9.40;39.90
84807;DHT22;75042;43.504;3.714;2024-01-07T13:19:43;9.50;39.70
84807;DHT22;75042;43.504;3.714;2024-01-07T13:22:09;9.50;39.70
84807;DHT22;75042;43.504;3.714;2024-01-07T13:24:37;9.60;39.50
84807;DHT22;75042;43.504;3.714;2024-01-07T13:27:03;9.60;39.30
84807;DHT22;75042;43.504;3.714;2024-01-07T13:29:29;9.50;39.60
84807;DHT22;75042;43.504;3.714;2024-01-07T13:31:54;9.50;39.60
84807;DHT22;75042;43.504;3.714;2024-01-07T13:34:20;9.60;39.80
84807;DHT22;75042;43.504;3.714;2024-01-07T13:36:45;9.50;39.40
84807;DHT22;75042;43.504;3.714;2024-01-07T13:39:11;9.40;39.50
84807;DHT22;75042;43.504;3.714;2024-01-07T13:41:37;9.40;39.50
84807;DHT22;75042;43.504;3.714;2024-01-07T13:44:02;9.50;39.40
84807;DHT22;75042;43.504;3.714;2024-01-07T13:46:28;9.40;39.30
84807;DHT22;75042;43.504;3.714;2024-01-07T13:48:54;9.40;39.30
84807;DHT22;75042;43.504;3.714;2024-01-07T13:51:19;9.40;39.60
84807;DHT22;75042;43.504;3.714;2024-01-07T13:53:45;9.40;39.50
84807;DHT22;75042;43.504;3.714;2024-01-07T13:56:13;9.50;39.40
84807;DHT22;75042;43.504;3.714;2024-01-07T13:58:39;9.40;39.40
84807;DHT22;75042;43.504;3.714;2024-01-07T14:01:04;9.50;39.50
84807;DHT22;75042;43.504;3.714;2024-01-07T14:03:32;9.50;39.20
84807;DHT22;75042;43.504;3.714;2024-01-07T14:05:58;9.40;38.90
84807;DHT22;75042;43.504;3.714;2024-01-07T14:08:24;9.30;39.40
84807;DHT22;75042;43.504;3.714;2024-01-07T14:10:49;9.20;39.40
84807;DHT22;75042;43.504;3.714;2024-01-07T14:13:15;9.20;39.60
84807;DHT22;75042;43.504;3.714;2024-01-07T14:15:41;9.20;39.10
84807;DHT22;75042;43.504;3.714;2024-01-07T14:18:07;9.10;38.90
84807;DHT22;75042;43.504;3.714;2024-01-07T14:20:34;9.10;39.10
84807;DHT22;75042;43.504;3.714;2024-01-07T14:23:00;9.10;39.30
84807;DHT22;75042;43.504;3.714;2024-01-07T14:25:25;9.10;39.20
84807;DHT22;75042;43.504;3.714;2024-01-07T14:27:51;9.10;39.30
84807;DHT22;75042;43.504;3.714;2024-01-07T14:30:16;9.10;39.20
84807;DHT22;75042;43.504;3.714;2024-01-07T14:32:42;9.00;39.30
84807;DHT22;75042;43.504;3.714;2024-01-07T14:35:07;9.00;39.70
84807;DHT22;75042;43.504;3.714;2024-01-07T14:37:33;9.00;40.10
84807;DHT22;75042;43.504;3.714;2024-01-07T14:39:59;9.00;40.60
84807;DHT22;75042;43.504;3.714;2024-01-07T14:42:24;9.00;40.80
84807;DHT22;75042;43.504;3.714;2024-01-07T14:44:50;9.00;41.80
84807;DHT22;75042;43.504;3.714;2024-01-07T14:47:15;8.90;42.20
84807;DHT22;75042;43.504;3.714;2024-01-07T14:49:41;8.80;42.50
84807;DHT22;75042;43.504;3.714;2024-01-07T14:52:07;8.70;42.80
84807;DHT22;75042;43.504;3.714;2024-01-07T14:54:32;8.70;43.00
84807;DHT22;75042;43.504;3.714;2024-01-07T14:57:00;8.70;43.10
84807;DHT22;75042;43.504;3.714;2024-01-07T14:59:26;8.60;43.20
84807;DHT22;75042;43.504;3.714;2024-01-07T15:01:51;8.50;43.10
84807;DHT22;75042;43.504;3.714;2024-01-07T15:04:19;8.50;43.20
84807;DHT22;75042;43.504;3.714;2024-01-07T15:06:44;8.40;43.50
84807;DHT22;75042;43.504;3.714;2024-01-07T15:09:11;8.40;43.60
84807;DHT22;75042;43.504;3.714;2024-01-07T15:11:38;8.30;43.20
84807;DHT22;75042;43.504;3.714;2024-01-07T15:14:07;8.30;43.50
84807;DHT22;75042;43.504;3.714;2024-01-07T15:16:36;8.20;43.40
84807;DHT22;75042;43.504;3.714;2024-01-07T15:19:02;8.20;43.50
84807;DHT22;75042;43.504;3.714;2024-01-07T15:21:28;8.10;43.50
84807;DHT22;75042;43.504;3.714;2024-01-07T15:23:53;8.10;43.60
84807;DHT22;75042;43.504;3.714;2024-01-07T15:26:19;8.10;43.90
84807;DHT22;75042;43.504;3.714;2024-01-07T15:28:44;8.00;43.90
84807;DHT22;75042;43.504;3.714;2024-01-07T15:31:10;7.90;44.10
84807;DHT22;75042;43.504;3.714;2024-01-07T15:33:35;7.90;44.40
84807;DHT22;75042;43.504;3.714;2024-01-07T15:36:04;7.80;44.50
84807;DHT22;75042;43.504;3.714;2024-01-07T15:38:29;7.80;44.50
84807;DHT22;75042;43.504;3.714;2024-01-07T15:40:55;7.70;44.70
84807;DHT22;75042;43.504;3.714;2024-01-07T15:43:20;7.70;44.80